sensor_id;sensor_type;location;lat;lon;timestamp;temperature;humidity
62464;SHT31;48512;48.552;9.380;2023-11-21T00:00:19;8.06;93.26
62464;SHT31;48512;48.552;9.380;2023-11-21T00:02:46;8.05;92.92
62464;SHT31;48512;48.552;9.380;2023-11-21T00:05:13;8.05;91.51
62464;SHT31;48512;48.552;9.380;2023-11-21T00:07:43;7.99;92.14
62464;SHT31;48512;48.552;9.380;2023-11-21T00:10:10;8.05;91.26
62464;SHT31;48512;48.552;9.380;2023-11-21T00:12:36;8.05;92.39
62464;SHT31;48512;48.552;9.380;2023-11-21T00:15:03;8.05;91.55
62464;SHT31;48512;48.552;9.380;2023-11-21T00:17:31;8.07;91.33
62464;SHT31;48512;48.552;9.380;2023-11-21T00:19:57;8.12;91.90
62464;SHT31;48512;48.552;9.380;2023-11-21T00:22:23;8.12;91.33
62464;SHT31;48512;48.552;9.380;2023-11-21T00:24:49;8.09;91.52
62464;SHT31;48512;48.552;9.380;2023-11-21T00:27:15;8.09;90.41
62464;SHT31;48512;48.552;9.380;2023-11-21T00:29:41;8.16;88.89
62464;SHT31;48512;48.552;9.380;2023-11-21T00:32:07;8.16;89.88
62464;SHT31;48512;48.552;9.380;2023-11-21T00:34:34;8.15;90.40
62464;SHT31;48512;48.552;9.380;2023-11-21T00:37:00;8.17;89.07
62464;SHT31;48512;48.552;9.380;2023-11-21T00:39:26;8.17;90.17
62464;SHT31;48512;48.552;9.380;2023-11-21T00:41:52;8.16;90.47
62464;SHT31;48512;48.552;9.380;2023-11-21T00:44:18;8.10;91.23
62464;SHT31;48512;48.552;9.380;2023-11-21T00:46:45;8.12;90.93
62464;SHT31;48512;48.552;9.380;2023-11-21T00:49:11;8.07;91.50
62464;SHT31;48512;48.552;9.380;2023-11-21T00:51:37;8.10;92.06
62464;SHT31;48512;48.552;9.380;2023-11-21T00:54:03;8.05;92.01
62464;SHT31;48512;48.552;9.380;2023-11-21T00:56:29;8.10;92.65
62464;SHT31;48512;48.552;9.380;2023-11-21T00:58:55;8.06;91.39
62464;SHT31;48512;48.552;9.380;2023-11-21T01:01:21;8.10;92.07
62464;SHT31;48512;48.552;9.380;2023-11-21T01:03:48;8.16;91.94
62464;SHT31;48512;48.552;9.380;2023-11-21T01:06:15;8.15;92.43
62464;SHT31;48512;48.552;9.380;2023-11-21T01:08:43;8.15;92.19
62464;SHT31;48512;48.552;9.380;2023-11-21T01:11:10;8.17;92.72
62464;SHT31;48512;48.552;9.380;2023-11-21T01:13:39;8.17;93.21
62464;SHT31;48512;48.552;9.380;2023-11-21T01:16:05;8.17;93.02
62464;SHT31;48512;48.552;9.380;2023-11-21T01:18:32;8.17;92.89
62464;SHT31;48512;48.552;9.380;2023-11-21T01:20:59;8.15;92.32
62464;SHT31;48512;48.552;9.380;2023-11-21T01:23:28;8.15;92.54
62464;SHT31;48512;48.552;9.380;2023-11-21T01:25:56;8.12;92.19
62464;SHT31;48512;48.552;9.380;2023-11-21T01:28:22;8.06;92.49
62464;SHT31;48512;48.552;9.380;2023-11-21T01:30:48;8.07;93.16
62464;SHT31;48512;48.552;9.380;2023-11-21T01:33:15;8.03;93.74
62464;SHT31;48512;48.552;9.380;2023-11-21T01:35:44;8.01;93.32
62464;SHT31;48512;48.552;9.380;2023-11-21T01:38:12;7.99;92.99
62464;SHT31;48512;48.552;9.380;2023-11-21T01:40:38;8.02;92.94
62464;SHT31;48512;48.552;9.380;2023-11-21T01:43:04;8.03;90.40
62464;SHT31;48512;48.552;9.380;2023-11-21T01:45:30;8.07;90.53
62464;SHT31;48512;48.552;9.380;2023-11-21T01:48:00;8.15;91.08
62464;SHT31;48512;48.552;9.380;2023-11-21T01:50:27;8.15;91.48
62464;SHT31;48512;48.552;9.380;2023-11-21T01:52:54;8.13;91.53
62464;SHT31;48512;48.552;9.380;2023-11-21T01:55:21;8.10;92.25
62464;SHT31;48512;48.552;9.380;2023-11-21T01:57:48;8.09;91.89
62464;SHT31;48512;48.552;9.380;2023-11-21T02:00:14;8.12;92.80
62464;SHT31;48512;48.552;9.380;2023-11-21T02:02:45;8.06;91.41
62464;SHT31;48512;48.552;9.380;2023-11-21T02:05:13;8.07;92.05
62464;SHT31;48512;48.552;9.380;2023-11-21T02:07:41;8.03;92.56
62464;SHT31;48512;48.552;9.380;2023-11-21T02:10:09;7.94;93.10
62464;SHT31;48512;48.552;9.380;2023-11-21T02:12:36;7.92;92.90
62464;SHT31;48512;48.552;9.380;2023-11-21T02:15:03;7.89;93.30
62464;SHT31;48512;48.552;9.380;2023-11-21T02:17:31;7.88;93.68
62464;SHT31;48512;48.552;9.380;2023-11-21T02:19:58;7.86;93.81
62464;SHT31;48512;48.552;9.380;2023-11-21T02:22:28;7.89;93.66
62464;SHT31;48512;48.552;9.380;2023-11-21T02:24:56;7.91;93.47
62464;SHT31;48512;48.552;9.380;2023-11-21T02:27:23;7.92;92.36
62464;SHT31;48512;48.552;9.380;2023-11-21T02:29:50;7.99;89.88
62464;SHT31;48512;48.552;9.380;2023-11-21T02:32:16;8.05;90.28
62464;SHT31;48512;48.552;9.380;2023-11-21T02:34:45;8.05;90.84
62464;SHT31;48512;48.552;9.380;2023-11-21T02:37:11;8.05;91.21
62464;SHT31;48512;48.552;9.380;2023-11-21T02:39:38;8.09;91.35
62464;SHT31;48512;48.552;9.380;2023-11-21T02:42:04;8.07;91.10
62464;SHT31;48512;48.552;9.380;2023-11-21T02:44:31;8.05;90.81
62464;SHT31;48512;48.552;9.380;2023-11-21T02:46:57;8.05;90.52
62464;SHT31;48512;48.552;9.380;2023-11-21T02:49:23;8.02;90.79
62464;SHT31;48512;48.552;9.380;2023-11-21T02:51:49;7.99;89.93
62464;SHT31;48512;48.552;9.380;2023-11-21T02:54:15;8.01;89.06
62464;SHT31;48512;48.552;9.380;2023-11-21T02:56:42;8.03;89.67
62464;SHT31;48512;48.552;9.380;2023-11-21T02:59:09;7.99;89.41
62464;SHT31;48512;48.552;9.380;2023-11-21T03:01:35;7.96;89.65
62464;SHT31;48512;48.552;9.380;2023-11-21T03:04:01;7.96;88.76
62464;SHT31;48512;48.552;9.380;2023-11-21T03:06:27;7.96;89.52
62464;SHT31;48512;48.552;9.380;2023-11-21T03:08:53;7.95;90.59
62464;SHT31;48512;48.552;9.380;2023-11-21T03:11:19;7.92;90.97
62464;SHT31;48512;48.552;9.380;2023-11-21T03:13:45;7.89;90.33
62464;SHT31;48512;48.552;9.380;2023-11-21T03:16:12;7.84;90.59
62464;SHT31;48512;48.552;9.380;2023-11-21T03:18:40;7.85;90.00
62464;SHT31;48512;48.552;9.380;2023-11-21T03:21:06;7.86;89.62
62464;SHT31;48512;48.552;9.380;2023-11-21T03:23:36;7.92;89.65
62464;SHT31;48512;48.552;9.380;2023-11-21T03:26:03;7.92;89.88
62464;SHT31;48512;48.552;9.380;2023-11-21T03:28:30;7.92;88.59
62464;SHT31;48512;48.552;9.380;2023-11-21T03:30:56;7.95;88.79
62464;SHT31;48512;48.552;9.380;2023-11-21T03:33:23;7.88;89.86
62464;SHT31;48512;48.552;9.380;2023-11-21T03:35:51;7.89;89.12
62464;SHT31;48512;48.552;9.380;2023-11-21T03:38:18;7.89;89.95
62464;SHT31;48512;48.552;9.380;2023-11-21T03:40:45;7.88;89.88
62464;SHT31;48512;48.552;9.380;2023-11-21T03:43:11;7.89;89.60
62464;SHT31;48512;48.552;9.380;2023-11-21T03:45:38;7.95;90.23
62464;SHT31;48512;48.552;9.380;2023-11-21T03:48:07;7.89;90.59
62464;SHT31;48512;48.552;9.380;2023-11-21T03:50:33;7.85;90.96
62464;SHT31;48512;48.552;9.380;2023-11-21T03:52:59;7.88;90.85
62464;SHT31;48512;48.552;9.380;2023-11-21T03:55:25;7.86;91.17
62464;SHT31;48512;48.552;9.380;2023-11-21T03:57:52;7.86;90.84
62464;SHT31;48512;48.552;9.380;2023-11-21T04:00:19;7.85;90.47
62464;SHT31;48512;48.552;9.380;2023-11-21T04:02:48;7.89;89.24
62464;SHT31;48512;48.552;9.380;2023-11-21T04:05:14;7.91;88.59
62464;SHT31;48512;48.552;9.380;2023-11-21T04:07:40;7.95;89.65
62464;SHT31;48512;48.552;9.380;2023-11-21T04:10:07;7.96;88.71
62464;SHT31;48512;48.552;9.380;2023-11-21T04:12:35;7.98;89.85
62464;SHT31;48512;48.552;9.380;2023-11-21T04:15:02;7.95;90.31
62464;SHT31;48512;48.552;9.380;2023-11-21T04:17:29;7.94;91.17
62464;SHT31;48512;48.552;9.380;2023-11-21T04:19:56;7.96;90.84
62464;SHT31;48512;48.552;9.380;2023-11-21T04:22:22;7.98;91.14
62464;SHT31;48512;48.552;9.380;2023-11-21T04:24:48;7.99;90.97
62464;SHT31;48512;48.552;9.380;2023-11-21T04:27:15;7.94;90.63
62464;SHT31;48512;48.552;9.380;2023-11-21T04:29:44;7.91;90.17
62464;SHT31;48512;48.552;9.380;2023-11-21T04:32:10;7.92;90.49
62464;SHT31;48512;48.552;9.380;2023-11-21T04:34:36;7.91;89.55
62464;SHT31;48512;48.552;9.380;2023-11-21T04:37:02;7.94;89.19
62464;SHT31;48512;48.552;9.380;2023-11-21T04:39:29;7.96;88.75
62464;SHT31;48512;48.552;9.380;2023-11-21T04:41:55;7.96;89.92
62464;SHT31;48512;48.552;9.380;2023-11-21T04:44:21;7.94;90.68
62464;SHT31;48512;48.552;9.380;2023-11-21T04:46:47;7.94;90.88
62464;SHT31;48512;48.552;9.380;2023-11-21T04:49:14;7.94;90.80
62464;SHT31;48512;48.552;9.380;2023-11-21T04:51:40;7.96;89.84
62464;SHT31;48512;48.552;9.380;2023-11-21T04:54:06;7.99;87.90
62464;SHT31;48512;48.552;9.380;2023-11-21T04:56:32;8.05;87.31
62464;SHT31;48512;48.552;9.380;2023-11-21T04:58:58;8.09;88.01
62464;SHT31;48512;48.552;9.380;2023-11-21T05:01:24;8.06;88.47
62464;SHT31;48512;48.552;9.380;2023-11-21T05:03:50;8.01;88.76
62464;SHT31;48512;48.552;9.380;2023-11-21T05:06:18;8.01;88.87
62464;SHT31;48512;48.552;9.380;2023-11-21T05:08:44;7.99;89.28
62464;SHT31;48512;48.552;9.380;2023-11-21T05:11:10;7.99;89.53
62464;SHT31;48512;48.552;9.380;2023-11-21T05:13:36;7.96;89.14
62464;SHT31;48512;48.552;9.380;2023-11-21T05:16:03;7.96;89.36
62464;SHT31;48512;48.552;9.380;2023-11-21T05:18:33;7.99;90.24
62464;SHT31;48512;48.552;9.380;2023-11-21T05:21:00;7.98;90.14
62464;SHT31;48512;48.552;9.380;2023-11-21T05:23:26;7.95;90.64
62464;SHT31;48512;48.552;9.380;2023-11-21T05:25:52;7.95;91.11
62464;SHT31;48512;48.552;9.380;2023-11-21T05:28:18;7.94;90.71
62464;SHT31;48512;48.552;9.380;2023-11-21T05:30:44;7.91;90.80
62464;SHT31;48512;48.552;9.380;2023-11-21T05:33:10;7.89;90.76
62464;SHT31;48512;48.552;9.380;2023-11-21T05:35:37;7.92;91.03
62464;SHT31;48512;48.552;9.380;2023-11-21T05:38:03;7.92;91.23
62464;SHT31;48512;48.552;9.380;2023-11-21T05:40:29;7.89;91.16
62464;SHT31;48512;48.552;9.380;2023-11-21T05:42:55;7.89;91.41
62464;SHT31;48512;48.552;9.380;2023-11-21T05:45:22;7.85;91.95
62464;SHT31;48512;48.552;9.380;2023-11-21T05:47:48;7.85;92.04
62464;SHT31;48512;48.552;9.380;2023-11-21T05:50:16;7.86;92.40
62464;SHT31;48512;48.552;9.380;2023-11-21T05:52:44;7.86;92.29
62464;SHT31;48512;48.552;9.380;2023-11-21T05:55:10;7.88;92.50
62464;SHT31;48512;48.552;9.380;2023-11-21T05:57:38;7.88;92.63
62464;SHT31;48512;48.552;9.380;2023-11-21T06:00:05;8.85;98.50
62464;SHT31;48512;48.552;9.380;2023-11-21T06:02:39;9.81;93.04
62464;SHT31;48512;48.552;9.380;2023-11-21T06:05:09;10.06;94.28
62464;SHT31;48512;48.552;9.380;2023-11-21T06:07:35;10.02;91.02
62464;SHT31;48512;48.552;9.380;2023-11-21T06:10:04;9.51;86.16
62464;SHT31;48512;48.552;9.380;2023-11-21T06:12:37;9.14;86.65
62464;SHT31;48512;48.552;9.380;2023-11-21T06:15:04;8.63;88.04
62464;SHT31;48512;48.552;9.380;2023-11-21T06:17:31;8.43;89.33
62464;SHT31;48512;48.552;9.380;2023-11-21T06:19:57;8.29;90.69
62464;SHT31;48512;48.552;9.380;2023-11-21T06:22:23;8.16;91.30
62464;SHT31;48512;48.552;9.380;2023-11-21T06:24:50;8.02;91.44
62464;SHT31;48512;48.552;9.380;2023-11-21T06:27:16;7.99;92.17
62464;SHT31;48512;48.552;9.380;2023-11-21T06:29:42;7.96;92.47
62464;SHT31;48512;48.552;9.380;2023-11-21T06:32:08;7.94;92.73
62464;SHT31;48512;48.552;9.380;2023-11-21T06:34:34;7.85;93.04
62464;SHT31;48512;48.552;9.380;2023-11-21T06:37:00;7.84;93.55
62464;SHT31;48512;48.552;9.380;2023-11-21T06:39:26;7.77;93.53
62464;SHT31;48512;48.552;9.380;2023-11-21T06:41:53;7.73;93.51
62464;SHT31;48512;48.552;9.380;2023-11-21T06:44:20;7.73;94.25
62464;SHT31;48512;48.552;9.380;2023-11-21T06:46:46;7.66;94.61
62464;SHT31;48512;48.552;9.380;2023-11-21T06:49:12;7.67;94.57
62464;SHT31;48512;48.552;9.380;2023-11-21T06:51:38;7.64;94.91
62464;SHT31;48512;48.552;9.380;2023-11-21T06:54:05;7.64;95.29
62464;SHT31;48512;48.552;9.380;2023-11-21T06:56:31;7.63;95.60
62464;SHT31;48512;48.552;9.380;2023-11-21T06:58:58;7.64;95.62
62464;SHT31;48512;48.552;9.380;2023-11-21T07:01:24;7.64;95.51
62464;SHT31;48512;48.552;9.380;2023-11-21T07:03:50;7.68;95.37
62464;SHT31;48512;48.552;9.380;2023-11-21T07:06:16;7.74;95.01
62464;SHT31;48512;48.552;9.380;2023-11-21T07:08:43;7.74;94.76
62464;SHT31;48512;48.552;9.380;2023-11-21T07:11:09;7.77;94.67
62464;SHT31;48512;48.552;9.380;2023-11-21T07:13:35;7.81;94.37
62464;SHT31;48512;48.552;9.380;2023-11-21T07:16:01;7.88;94.33
62464;SHT31;48512;48.552;9.380;2023-11-21T07:18:27;7.86;94.06
62464;SHT31;48512;48.552;9.380;2023-11-21T07:20:53;7.91;93.74
62464;SHT31;48512;48.552;9.380;2023-11-21T07:23:19;7.92;93.05
62464;SHT31;48512;48.552;9.380;2023-11-21T07:25:45;7.94;92.61
62464;SHT31;48512;48.552;9.380;2023-11-21T07:28:11;8.02;92.68
62464;SHT31;48512;48.552;9.380;2023-11-21T07:30:37;8.03;91.95
62464;SHT31;48512;48.552;9.380;2023-11-21T07:33:03;7.99;91.52
62464;SHT31;48512;48.552;9.380;2023-11-21T07:35:29;8.02;91.39
62464;SHT31;48512;48.552;9.380;2023-11-21T07:37:55;8.03;91.63
62464;SHT31;48512;48.552;9.380;2023-11-21T07:40:22;8.06;91.19
62464;SHT31;48512;48.552;9.380;2023-11-21T07:42:48;8.12;91.30
62464;SHT31;48512;48.552;9.380;2023-11-21T07:45:16;8.13;90.47
62464;SHT31;48512;48.552;9.380;2023-11-21T07:47:42;8.17;90.51
62464;SHT31;48512;48.552;9.380;2023-11-21T07:50:08;8.21;89.36
62464;SHT31;48512;48.552;9.380;2023-11-21T07:52:35;8.28;89.65
62464;SHT31;48512;48.552;9.380;2023-11-21T07:55:01;8.29;89.56
62464;SHT31;48512;48.552;9.380;2023-11-21T07:57:28;8.32;89.84
62464;SHT31;48512;48.552;9.380;2023-11-21T07:59:54;8.40;88.39
62464;SHT31;48512;48.552;9.380;2023-11-21T08:02:21;8.49;88.68
62464;SHT31;48512;48.552;9.380;2023-11-21T08:04:47;8.43;88.20
62464;SHT31;48512;48.552;9.380;2023-11-21T08:07:16;8.50;88.31
62464;SHT31;48512;48.552;9.380;2023-11-21T08:09:43;8.56;88.53
62464;SHT31;48512;48.552;9.380;2023-11-21T08:12:10;8.50;87.80
62464;SHT31;48512;48.552;9.380;2023-11-21T08:14:36;8.49;87.67
62464;SHT31;48512;48.552;9.380;2023-11-21T08:17:05;8.53;88.12
62464;SHT31;48512;48.552;9.380;2023-11-21T08:19:31;8.53;88.54
62464;SHT31;48512;48.552;9.380;2023-11-21T08:21:58;8.60;88.51
62464;SHT31;48512;48.552;9.380;2023-11-21T08:24:25;8.60;88.36
62464;SHT31;48512;48.552;9.380;2023-11-21T08:26:51;8.56;87.58
62464;SHT31;48512;48.552;9.380;2023-11-21T08:29:18;8.60;87.66
62464;SHT31;48512;48.552;9.380;2023-11-21T08:31:44;8.65;88.24
62464;SHT31;48512;48.552;9.380;2023-11-21T08:34:12;8.75;88.71
62464;SHT31;48512;48.552;9.380;2023-11-21T08:36:42;8.74;87.56
62464;SHT31;48512;48.552;9.380;2023-11-21T08:39:08;8.71;87.66
62464;SHT31;48512;48.552;9.380;2023-11-21T08:41:36;8.81;87.73
62464;SHT31;48512;48.552;9.380;2023-11-21T08:44:02;8.77;86.93
62464;SHT31;48512;48.552;9.380;2023-11-21T08:46:33;8.78;86.83
62464;SHT31;48512;48.552;9.380;2023-11-21T08:49:03;8.85;86.99
62464;SHT31;48512;48.552;9.380;2023-11-21T08:51:29;8.88;87.60
62464;SHT31;48512;48.552;9.380;2023-11-21T08:53:55;8.87;87.18
62464;SHT31;48512;48.552;9.380;2023-11-21T08:56:25;8.97;87.48
62464;SHT31;48512;48.552;9.380;2023-11-21T08:58:51;9.02;87.47
62464;SHT31;48512;48.552;9.380;2023-11-21T09:01:18;9.08;87.05
62464;SHT31;48512;48.552;9.380;2023-11-21T09:03:44;9.12;87.02
62464;SHT31;48512;48.552;9.380;2023-11-21T09:06:11;9.05;87.78
62464;SHT31;48512;48.552;9.380;2023-11-21T09:08:37;9.11;87.96
62464;SHT31;48512;48.552;9.380;2023-11-21T09:11:04;9.15;88.32
62464;SHT31;48512;48.552;9.380;2023-11-21T09:13:30;9.15;88.19
62464;SHT31;48512;48.552;9.380;2023-11-21T09:15:56;9.14;88.24
62464;SHT31;48512;48.552;9.380;2023-11-21T09:18:22;9.19;88.52
62464;SHT31;48512;48.552;9.380;2023-11-21T09:20:48;9.23;88.31
62464;SHT31;48512;48.552;9.380;2023-11-21T09:23:14;9.19;88.11
62464;SHT31;48512;48.552;9.380;2023-11-21T09:25:41;9.15;88.01
62464;SHT31;48512;48.552;9.380;2023-11-21T09:28:08;9.12;87.86
62464;SHT31;48512;48.552;9.380;2023-11-21T09:30:35;9.20;88.76
62464;SHT31;48512;48.552;9.380;2023-11-21T09:33:02;9.30;88.20
62464;SHT31;48512;48.552;9.380;2023-11-21T09:35:28;9.19;87.29
62464;SHT31;48512;48.552;9.380;2023-11-21T09:37:54;9.22;87.34
62464;SHT31;48512;48.552;9.380;2023-11-21T09:40:21;9.25;87.80
62464;SHT31;48512;48.552;9.380;2023-11-21T09:42:57;9.28;87.85
62464;SHT31;48512;48.552;9.380;2023-11-21T09:47:55;9.33;88.97
62464;SHT31;48512;48.552;9.380;2023-11-21T09:50:22;9.42;88.71
62464;SHT31;48512;48.552;9.380;2023-11-21T09:55:27;9.60;88.37
62464;SHT31;48512;48.552;9.380;2023-11-21T09:58:03;9.66;87.60
62464;SHT31;48512;48.552;9.380;2023-11-21T10:00:30;9.70;87.41
62464;SHT31;48512;48.552;9.380;2023-11-21T10:02:59;9.73;86.37
62464;SHT31;48512;48.552;9.380;2023-11-21T10:05:25;9.69;86.27
62464;SHT31;48512;48.552;9.380;2023-11-21T10:07:53;9.66;85.73
62464;SHT31;48512;48.552;9.380;2023-11-21T10:10:20;9.70;86.32
62464;SHT31;48512;48.552;9.380;2023-11-21T10:12:51;9.80;86.07
62464;SHT31;48512;48.552;9.380;2023-11-21T10:15:22;9.74;85.11
62464;SHT31;48512;48.552;9.380;2023-11-21T10:17:49;9.70;85.22
62464;SHT31;48512;48.552;9.380;2023-11-21T10:20:16;9.53;85.36
62464;SHT31;48512;48.552;9.380;2023-11-21T10:22:42;9.63;85.96
62464;SHT31;48512;48.552;9.380;2023-11-21T10:25:09;9.73;85.49
62464;SHT31;48512;48.552;9.380;2023-11-21T10:27:37;9.81;85.00
62464;SHT31;48512;48.552;9.380;2023-11-21T10:30:06;9.85;85.07
62464;SHT31;48512;48.552;9.380;2023-11-21T10:32:32;9.94;85.18
62464;SHT31;48512;48.552;9.380;2023-11-21T10:34:59;10.02;84.55
62464;SHT31;48512;48.552;9.380;2023-11-21T10:37:26;10.08;84.71
62464;SHT31;48512;48.552;9.380;2023-11-21T10:40:01;10.05;83.63
62464;SHT31;48512;48.552;9.380;2023-11-21T10:42:27;10.09;83.71
62464;SHT31;48512;48.552;9.380;2023-11-21T10:44:54;9.97;82.44
62464;SHT31;48512;48.552;9.380;2023-11-21T10:47:21;9.94;83.31
62464;SHT31;48512;48.552;9.380;2023-11-21T10:49:48;9.93;84.46
62464;SHT31;48512;48.552;9.380;2023-11-21T10:52:15;9.95;85.50
62464;SHT31;48512;48.552;9.380;2023-11-21T10:54:44;9.93;85.99
62464;SHT31;48512;48.552;9.380;2023-11-21T10:57:10;9.94;86.19
62464;SHT31;48512;48.552;9.380;2023-11-21T10:59:36;9.88;86.86
62464;SHT31;48512;48.552;9.380;2023-11-21T11:02:21;9.83;87.07
62464;SHT31;48512;48.552;9.380;2023-11-21T11:04:48;9.87;86.44
62464;SHT31;48512;48.552;9.380;2023-11-21T11:07:15;9.97;85.98
62464;SHT31;48512;48.552;9.380;2023-11-21T11:09:42;9.95;85.64
62464;SHT31;48512;48.552;9.380;2023-11-21T11:12:10;9.99;85.27
62464;SHT31;48512;48.552;9.380;2023-11-21T11:14:40;10.08;85.82
62464;SHT31;48512;48.552;9.380;2023-11-21T11:17:07;10.04;86.21
62464;SHT31;48512;48.552;9.380;2023-11-21T11:19:35;10.11;86.33
62464;SHT31;48512;48.552;9.380;2023-11-21T11:22:37;10.12;86.20
62464;SHT31;48512;48.552;9.380;2023-11-21T11:25:45;10.19;86.09
62464;SHT31;48512;48.552;9.380;2023-11-21T11:28:51;10.26;85.47
62464;SHT31;48512;48.552;9.380;2023-11-21T11:31:07;10.38;85.23
62464;SHT31;48512;48.552;9.380;2023-11-21T11:33:53;10.45;85.20
62464;SHT31;48512;48.552;9.380;2023-11-21T11:36:38;10.56;85.13
62464;SHT31;48512;48.552;9.380;2023-11-21T11:39:26;10.63;85.03
62464;SHT31;48512;48.552;9.380;2023-11-21T11:41:53;10.66;84.43
62464;SHT31;48512;48.552;9.380;2023-11-21T11:52:36;10.70;83.67
62464;SHT31;48512;48.552;9.380;2023-11-21T11:55:03;10.80;83.49
62464;SHT31;48512;48.552;9.380;2023-11-21T11:57:34;10.79;83.41
62464;SHT31;48512;48.552;9.380;2023-11-21T12:00:14;10.73;82.76
62464;SHT31;48512;48.552;9.380;2023-11-21T12:03:01;10.77;82.71
62464;SHT31;48512;48.552;9.380;2023-11-21T12:05:31;10.91;83.05
62464;SHT31;48512;48.552;9.380;2023-11-21T12:08:11;10.90;81.82
62464;SHT31;48512;48.552;9.380;2023-11-21T12:10:38;11.15;81.74
62464;SHT31;48512;48.552;9.380;2023-11-21T12:13:07;11.56;80.20
62464;SHT31;48512;48.552;9.380;2023-11-21T12:15:34;11.61;79.47
62464;SHT31;48512;48.552;9.380;2023-11-21T12:18:01;12.32;76.61
62464;SHT31;48512;48.552;9.380;2023-11-21T12:20:27;12.37;77.19
62464;SHT31;48512;48.552;9.380;2023-11-21T12:22:55;12.53;76.86
62464;SHT31;48512;48.552;9.380;2023-11-21T12:25:26;12.05;77.49
62464;SHT31;48512;48.552;9.380;2023-11-21T12:27:56;11.63;78.27
62464;SHT31;48512;48.552;9.380;2023-11-21T12:30:24;11.40;78.92
62464;SHT31;48512;48.552;9.380;2023-11-21T12:32:54;11.29;79.69
62464;SHT31;48512;48.552;9.380;2023-11-21T12:35:24;11.24;81.32
62464;SHT31;48512;48.552;9.380;2023-11-21T12:37:51;11.17;81.32
62464;SHT31;48512;48.552;9.380;2023-11-21T12:40:19;11.19;81.66
62464;SHT31;48512;48.552;9.380;2023-11-21T12:42:47;11.15;82.85
62464;SHT31;48512;48.552;9.380;2023-11-21T12:47:44;11.11;83.46
62464;SHT31;48512;48.552;9.380;2023-11-21T12:50:23;11.07;83.99
62464;SHT31;48512;48.552;9.380;2023-11-21T12:52:51;11.06;84.35
62464;SHT31;48512;48.552;9.380;2023-11-21T12:55:18;11.06;84.90
62464;SHT31;48512;48.552;9.380;2023-11-21T12:57:51;11.10;85.13
62464;SHT31;48512;48.552;9.380;2023-11-21T13:00:18;11.03;85.18
62464;SHT31;48512;48.552;9.380;2023-11-21T13:02:54;11.03;85.61
62464;SHT31;48512;48.552;9.380;2023-11-21T13:07:58;10.93;85.52
62464;SHT31;48512;48.552;9.380;2023-11-21T13:10:31;10.83;85.62
62464;SHT31;48512;48.552;9.380;2023-11-21T13:12:59;10.71;85.56
62464;SHT31;48512;48.552;9.380;2023-11-21T13:15:28;10.67;85.90
62464;SHT31;48512;48.552;9.380;2023-11-21T13:17:57;10.67;86.35
62464;SHT31;48512;48.552;9.380;2023-11-21T13:20:24;10.70;86.57
62464;SHT31;48512;48.552;9.380;2023-11-21T13:22:53;10.70;85.35
62464;SHT31;48512;48.552;9.380;2023-11-21T13:25:23;10.70;85.84
62464;SHT31;48512;48.552;9.380;2023-11-21T13:27:49;10.73;86.37
62464;SHT31;48512;48.552;9.380;2023-11-21T13:30:16;10.80;86.10
62464;SHT31;48512;48.552;9.380;2023-11-21T13:32:44;10.81;86.74
62464;SHT31;48512;48.552;9.380;2023-11-21T13:35:17;10.76;86.88
62464;SHT31;48512;48.552;9.380;2023-11-21T13:37:47;10.73;86.71
62464;SHT31;48512;48.552;9.380;2023-11-21T13:40:20;10.59;86.03
62464;SHT31;48512;48.552;9.380;2023-11-21T13:42:49;10.59;86.58
62464;SHT31;48512;48.552;9.380;2023-11-21T13:45:22;10.66;86.68
62464;SHT31;48512;48.552;9.380;2023-11-21T13:47:52;10.63;86.54
62464;SHT31;48512;48.552;9.380;2023-11-21T13:50:26;10.66;86.23
62464;SHT31;48512;48.552;9.380;2023-11-21T13:53:02;10.62;86.37
62464;SHT31;48512;48.552;9.380;2023-11-21T13:55:42;10.62;86.20
62464;SHT31;48512;48.552;9.380;2023-11-21T13:58:08;10.53;86.00
62464;SHT31;48512;48.552;9.380;2023-11-21T14:00:37;10.55;86.33
62464;SHT31;48512;48.552;9.380;2023-11-21T14:03:12;10.55;86.78
62464;SHT31;48512;48.552;9.380;2023-11-21T14:05:48;10.56;86.94
62464;SHT31;48512;48.552;9.380;2023-11-21T14:08:20;10.59;87.12
62464;SHT31;48512;48.552;9.380;2023-11-21T14:10:47;10.63;86.98
62464;SHT31;48512;48.552;9.380;2023-11-21T14:13:21;10.63;86.44
62464;SHT31;48512;48.552;9.380;2023-11-21T14:15:49;10.63;86.30
62464;SHT31;48512;48.552;9.380;2023-11-21T14:18:17;10.56;86.27
62464;SHT31;48512;48.552;9.380;2023-11-21T14:20:51;10.50;86.13
62464;SHT31;48512;48.552;9.380;2023-11-21T14:23:18;10.43;86.08
62464;SHT31;48512;48.552;9.380;2023-11-21T14:25:44;10.38;86.54
62464;SHT31;48512;48.552;9.380;2023-11-21T14:28:10;10.28;86.73
62464;SHT31;48512;48.552;9.380;2023-11-21T14:30:38;10.26;86.99
62464;SHT31;48512;48.552;9.380;2023-11-21T14:33:05;10.26;87.46
62464;SHT31;48512;48.552;9.380;2023-11-21T14:35:34;10.24;87.67
62464;SHT31;48512;48.552;9.380;2023-11-21T14:38:00;10.21;87.43
62464;SHT31;48512;48.552;9.380;2023-11-21T14:40:28;10.15;87.56
62464;SHT31;48512;48.552;9.380;2023-11-21T14:43:00;10.15;88.09
62464;SHT31;48512;48.552;9.380;2023-11-21T14:45:26;10.12;88.77
62464;SHT31;48512;48.552;9.380;2023-11-21T14:47:52;10.11;88.78
62464;SHT31;48512;48.552;9.380;2023-11-21T14:50:45;10.12;88.54
62464;SHT31;48512;48.552;9.380;2023-11-21T14:53:37;10.14;88.63
62464;SHT31;48512;48.552;9.380;2023-11-21T14:56:10;10.11;88.71
62464;SHT31;48512;48.552;9.380;2023-11-21T14:58:36;10.08;88.63
62464;SHT31;48512;48.552;9.380;2023-11-21T15:01:04;10.02;88.63
62464;SHT31;48512;48.552;9.380;2023-11-21T15:03:31;10.04;88.81
62464;SHT31;48512;48.552;9.380;2023-11-21T15:05:58;10.01;89.07
62464;SHT31;48512;48.552;9.380;2023-11-21T15:08:25;9.99;89.21
62464;SHT31;48512;48.552;9.380;2023-11-21T15:10:58;9.99;89.10
62464;SHT31;48512;48.552;9.380;2023-11-21T15:13:24;9.91;89.31
62464;SHT31;48512;48.552;9.380;2023-11-21T15:15:53;9.90;89.96
62464;SHT31;48512;48.552;9.380;2023-11-21T15:18:22;9.85;90.31
62464;SHT31;48512;48.552;9.380;2023-11-21T15:20:48;9.84;90.43
62464;SHT31;48512;48.552;9.380;2023-11-21T15:23:14;9.77;90.89
62464;SHT31;48512;48.552;9.380;2023-11-21T15:25:42;9.71;91.23
62464;SHT31;48512;48.552;9.380;2023-11-21T15:28:08;9.58;91.05
62464;SHT31;48512;48.552;9.380;2023-11-21T15:30:35;9.51;90.99
62464;SHT31;48512;48.552;9.380;2023-11-21T15:33:01;9.44;91.20
62464;SHT31;48512;48.552;9.380;2023-11-21T15:35:29;9.42;91.04
62464;SHT31;48512;48.552;9.380;2023-11-21T15:37:56;9.43;91.29
62464;SHT31;48512;48.552;9.380;2023-11-21T15:40:25;9.36;91.58
62464;SHT31;48512;48.552;9.380;2023-11-21T15:42:51;9.36;91.83
62464;SHT31;48512;48.552;9.380;2023-11-21T15:45:17;9.35;91.91
62464;SHT31;48512;48.552;9.380;2023-11-21T15:47:47;9.33;92.29
62464;SHT31;48512;48.552;9.380;2023-11-21T15:50:13;9.28;92.62
62464;SHT31;48512;48.552;9.380;2023-11-21T15:52:40;9.25;92.76
62464;SHT31;48512;48.552;9.380;2023-11-21T15:55:07;9.23;92.86
62464;SHT31;48512;48.552;9.380;2023-11-21T15:57:34;9.22;92.89
62464;SHT31;48512;48.552;9.380;2023-11-21T16:00:00;9.16;93.30
62464;SHT31;48512;48.552;9.380;2023-11-21T16:02:26;9.08;93.42
62464;SHT31;48512;48.552;9.380;2023-11-21T16:04:53;9.07;93.67